sensor_id;sensor_type;location;lat;lon;timestamp;pressure;altitude;pressure_sealevel;temperature;humidity
22649;BME280;11491;41.942;24.220;2023-08-06T00:01:27;88861.50;;;21.93;52.66
22649;BME280;11491;41.942;24.220;2023-08-06T00:03:54;88878.91;;;21.96;55.82
22649;BME280;11491;41.942;24.220;2023-08-06T00:06:20;88876.28;;;22.05;51.67
22649;BME280;11491;41.942;24.220;2023-08-06T00:08:47;88881.72;;;22.05;56.62
22649;BME280;11491;41.942;24.220;2023-08-06T00:11:14;88880.84;;;22.08;54.20
22649;BME280;11491;41.942;24.220;2023-08-06T00:13:42;88862.78;;;22.14;53.24
22649;BME280;11491;41.942;24.220;2023-08-06T00:16:09;88845.13;;;22.32;53.69
22649;BME280;11491;41.942;24.220;2023-08-06T00:18:37;88840.13;;;22.18;53.59
22649;BME280;11491;41.942;24.220;2023-08-06T00:21:04;88851.81;;;22.05;54.98
22649;BME280;11491;41.942;24.220;2023-08-06T00:23:30;88845.19;;;22.06;62.65
22649;BME280;11491;41.942;24.220;2023-08-06T00:25:57;88855.63;;;21.95;66.64
22649;BME280;11491;41.942;24.220;2023-08-06T00:28:24;88859.34;;;21.76;70.06
22649;BME280;11491;41.942;24.220;2023-08-06T00:30:54;88855.34;;;21.67;70.95
22649;BME280;11491;41.942;24.220;2023-08-06T00:33:21;88837.72;;;21.59;72.86
22649;BME280;11491;41.942;24.220;2023-08-06T00:35:48;88835.84;;;21.56;74.12
22649;BME280;11491;41.942;24.220;2023-08-06T00:38:14;88829.13;;;21.48;75.31
22649;BME280;11491;41.942;24.220;2023-08-06T00:40:41;88829.84;;;21.36;75.47
22649;BME280;11491;41.942;24.220;2023-08-06T00:43:08;88816.81;;;21.30;76.62
22649;BME280;11491;41.942;24.220;2023-08-06T00:45:36;88828.00;;;21.07;78.64
22649;BME280;11491;41.942;24.220;2023-08-06T00:48:05;88849.84;;;20.74;79.87
22649;BME280;11491;41.942;24.220;2023-08-06T00:50:32;88838.63;;;20.59;80.67
22649;BME280;11491;41.942;24.220;2023-08-06T00:52:59;88837.81;;;20.75;80.21
22649;BME280;11491;41.942;24.220;2023-08-06T00:55:26;88850.72;;;20.71;81.45
22649;BME280;11491;41.942;24.220;2023-08-06T00:57:53;88865.69;;;20.63;81.78
22649;BME280;11491;41.942;24.220;2023-08-06T01:00:22;88855.03;;;20.56;82.55
22649;BME280;11491;41.942;24.220;2023-08-06T01:02:48;88871.13;;;20.63;82.07
22649;BME280;11491;41.942;24.220;2023-08-06T01:05:17;88876.56;;;20.63;79.02
22649;BME280;11491;41.942;24.220;2023-08-06T01:07:51;88870.25;;;20.66;77.98
22649;BME280;11491;41.942;24.220;2023-08-06T01:10:34;88867.00;;;20.71;77.56
22649;BME280;11491;41.942;24.220;2023-08-06T01:13:08;88863.25;;;20.81;77.66
22649;BME280;11491;41.942;24.220;2023-08-06T01:15:41;88857.94;;;20.91;79.75
22649;BME280;11491;41.942;24.220;2023-08-06T01:18:10;88853.19;;;20.95;80.61
22649;BME280;11491;41.942;24.220;2023-08-06T01:20:38;88845.81;;;21.08;81.17
22649;BME280;11491;41.942;24.220;2023-08-06T01:23:05;88838.97;;;21.03;81.83
22649;BME280;11491;41.942;24.220;2023-08-06T01:25:34;88837.34;;;21.06;81.75
22649;BME280;11491;41.942;24.220;2023-08-06T01:28:07;88841.91;;;21.09;82.70
22649;BME280;11491;41.942;24.220;2023-08-06T01:30:39;88841.03;;;20.99;82.75
22649;BME280;11491;41.942;24.220;2023-08-06T01:33:10;88853.19;;;20.95;83.83
22649;BME280;11491;41.942;24.220;2023-08-06T01:35:42;88844.72;;;20.93;84.07
22649;BME280;11491;41.942;24.220;2023-08-06T01:38:09;88863.84;;;21.02;84.28
22649;BME280;11491;41.942;24.220;2023-08-06T01:40:36;88874.81;;;20.98;84.53
22649;BME280;11491;41.942;24.220;2023-08-06T01:43:03;88889.03;;;20.90;85.59
22649;BME280;11491;41.942;24.220;2023-08-06T01:45:29;88872.06;;;20.85;83.85
22649;BME280;11491;41.942;24.220;2023-08-06T01:47:56;88905.03;;;20.71;83.06
22649;BME280;11491;41.942;24.220;2023-08-06T01:50:23;88912.72;;;20.27;86.56
22649;BME280;11491;41.942;24.220;2023-08-06T01:52:51;88897.41;;;19.71;92.41
22649;BME280;11491;41.942;24.220;2023-08-06T01:55:18;88893.09;;;19.74;98.77
22649;BME280;11491;41.942;24.220;2023-08-06T01:57:44;88866.16;;;19.83;98.83
22649;BME280;11491;41.942;24.220;2023-08-06T02:00:12;88876.03;;;19.90;100.00
22649;BME280;11491;41.942;24.220;2023-08-06T02:02:39;88862.06;;;19.91;100.00
22649;BME280;11491;41.942;24.220;2023-08-06T02:05:06;88834.44;;;19.96;99.70
22649;BME280;11491;41.942;24.220;2023-08-06T02:07:33;88822.41;;;19.97;98.00
22649;BME280;11491;41.942;24.220;2023-08-06T02:10:01;88829.34;;;19.82;97.10
22649;BME280;11491;41.942;24.220;2023-08-06T02:12:30;88828.00;;;19.74;97.92
22649;BME280;11491;41.942;24.220;2023-08-06T02:14:57;88828.53;;;19.69;96.79
22649;BME280;11491;41.942;24.220;2023-08-06T02:17:23;88830.78;;;19.37;95.86
22649;BME280;11491;41.942;24.220;2023-08-06T02:19:50;88839.44;;;18.96;98.44
22649;BME280;11491;41.942;24.220;2023-08-06T02:22:17;88847.63;;;18.72;99.84
22649;BME280;11491;41.942;24.220;2023-08-06T02:24:44;88847.63;;;18.33;100.00
22649;BME280;11491;41.942;24.220;2023-08-06T02:27:12;88829.97;;;17.84;100.00
22649;BME280;11491;41.942;24.220;2023-08-06T02:29:40;88830.53;;;17.72;100.00
22649;BME280;11491;41.942;24.220;2023-08-06T02:32:07;88826.72;;;17.93;100.00
22649;BME280;11491;41.942;24.220;2023-08-06T02:34:34;88808.75;;;17.83;100.00
22649;BME280;11491;41.942;24.220;2023-08-06T02:37:01;88837.00;;;18.02;100.00
22649;BME280;11491;41.942;24.220;2023-08-06T02:39:28;88751.69;;;17.54;100.00
22649;BME280;11491;41.942;24.220;2023-08-06T02:41:54;88800.03;;;18.15;100.00
22649;BME280;11491;41.942;24.220;2023-08-06T02:44:22;88799.00;;;18.29;100.00
22649;BME280;11491;41.942;24.220;2023-08-06T02:46:49;88797.78;;;18.34;100.00
22649;BME280;11491;41.942;24.220;2023-08-06T02:49:16;88793.38;;;18.40;100.00
22649;BME280;11491;41.942;24.220;2023-08-06T02:51:44;88803.72;;;18.45;100.00
22649;BME280;11491;41.942;24.220;2023-08-06T02:54:11;88745.06;;;17.82;100.00
22649;BME280;11491;41.942;24.220;2023-08-06T02:56:38;88790.31;;;17.98;100.00
22649;BME280;11491;41.942;24.220;2023-08-06T02:59:05;88784.31;;;18.10;100.00
22649;BME280;11491;41.942;24.220;2023-08-06T03:01:33;88815.16;;;18.33;100.00
22649;BME280;11491;41.942;24.220;2023-08-06T03:04:01;88806.28;;;18.12;100.00
22649;BME280;11491;41.942;24.220;2023-08-06T03:06:28;88820.44;;;18.40;100.00
22649;BME280;11491;41.942;24.220;2023-08-06T03:08:55;88826.25;;;18.38;98.74
22649;BME280;11491;41.942;24.220;2023-08-06T03:11:22;88760.53;;;17.81;100.00
22649;BME280;11491;41.942;24.220;2023-08-06T03:13:48;88771.97;;;17.89;100.00
22649;BME280;11491;41.942;24.220;2023-08-06T03:16:15;88831.53;;;18.25;99.56
22649;BME280;11491;41.942;24.220;2023-08-06T03:18:43;88775.28;;;17.73;100.00
22649;BME280;11491;41.942;24.220;2023-08-06T03:21:10;88805.03;;;17.97;100.00
22649;BME280;11491;41.942;24.220;2023-08-06T03:23:37;88740.50;;;17.75;100.00
22649;BME280;11491;41.942;24.220;2023-08-06T03:26:04;88834.09;;;18.33;99.73
22649;BME280;11491;41.942;24.220;2023-08-06T03:28:30;88816.97;;;18.19;100.00
22649;BME280;11491;41.942;24.220;2023-08-06T03:31:00;88817.66;;;18.23;100.00
22649;BME280;11491;41.942;24.220;2023-08-06T03:33:27;88816.91;;;18.23;100.00
22649;BME280;11491;41.942;24.220;2023-08-06T03:35:55;88815.91;;;18.33;99.03
22649;BME280;11491;41.942;24.220;2023-08-06T03:38:22;88824.38;;;18.35;99.32
22649;BME280;11491;41.942;24.220;2023-08-06T03:40:49;88829.03;;;18.35;99.57
22649;BME280;11491;41.942;24.220;2023-08-06T03:43:16;88850.28;;;18.36;99.09
22649;BME280;11491;41.942;24.220;2023-08-06T03:45:43;88848.38;;;18.13;98.30
22649;BME280;11491;41.942;24.220;2023-08-06T03:48:09;88846.13;;;18.32;98.90
22649;BME280;11491;41.942;24.220;2023-08-06T03:50:36;88843.59;;;18.41;98.69
22649;BME280;11491;41.942;24.220;2023-08-06T03:53:04;88799.81;;;18.06;98.96
22649;BME280;11491;41.942;24.220;2023-08-06T03:55:31;88828.19;;;18.38;99.62
22649;BME280;11491;41.942;24.220;2023-08-06T03:57:58;88834.31;;;18.42;97.11
22649;BME280;11491;41.942;24.220;2023-08-06T04:00:25;88847.34;;;18.47;98.46
22649;BME280;11491;41.942;24.220;2023-08-06T04:02:51;88854.38;;;18.64;99.86
22649;BME280;11491;41.942;24.220;2023-08-06T04:05:18;88861.50;;;18.75;97.31
22649;BME280;11491;41.942;24.220;2023-08-06T04:07:45;88856.22;;;18.67;97.25
22649;BME280;11491;41.942;24.220;2023-08-06T04:10:13;88842.94;;;18.77;99.74
22649;BME280;11491;41.942;24.220;2023-08-06T04:12:40;88834.81;;;18.77;99.19
22649;BME280;11491;41.942;24.220;2023-08-06T04:15:07;88847.38;;;18.87;98.03
22649;BME280;11491;41.942;24.220;2023-08-06T04:17:34;88846.66;;;18.83;97.83
22649;BME280;11491;41.942;24.220;2023-08-06T04:20:01;88850.41;;;18.89;98.29
22649;BME280;11491;41.942;24.220;2023-08-06T04:22:27;88839.28;;;19.03;94.53
22649;BME280;11491;41.942;24.220;2023-08-06T04:24:54;88844.31;;;18.85;94.77
22649;BME280;11491;41.942;24.220;2023-08-06T04:27:22;88843.47;;;18.48;98.06
22649;BME280;11491;41.942;24.220;2023-08-06T04:29:49;88850.69;;;18.75;100.00
22649;BME280;11491;41.942;24.220;2023-08-06T04:32:16;88862.63;;;18.97;100.00
22649;BME280;11491;41.942;24.220;2023-08-06T04:34:44;88846.56;;;19.06;97.96
22649;BME280;11491;41.942;24.220;2023-08-06T04:37:12;88850.47;;;19.22;99.80
22649;BME280;11491;41.942;24.220;2023-08-06T04:39:38;88861.31;;;19.22;95.38
22649;BME280;11491;41.942;24.220;2023-08-06T04:42:06;88860.56;;;19.21;96.01
22649;BME280;11491;41.942;24.220;2023-08-06T04:44:34;88854.75;;;19.39;93.98
22649;BME280;11491;41.942;24.220;2023-08-06T04:47:00;88852.22;;;19.48;93.33
22649;BME280;11491;41.942;24.220;2023-08-06T04:49:27;88828.13;;;19.18;92.78
22649;BME280;11491;41.942;24.220;2023-08-06T04:51:54;88783.66;;;18.62;94.49
22649;BME280;11491;41.942;24.220;2023-08-06T04:54:43;88802.53;;;18.06;100.00
22649;BME280;11491;41.942;24.220;2023-08-06T05:02:56;88781.88;;;17.49;100.00
22649;BME280;11491;41.942;24.220;2023-08-06T05:05:59;88816.09;;;17.82;100.00
22649;BME280;11491;41.942;24.220;2023-08-06T05:08:26;88855.50;;;18.23;100.00
22649;BME280;11491;41.942;24.220;2023-08-06T05:10:53;88836.16;;;18.05;100.00
22649;BME280;11491;41.942;24.220;2023-08-06T05:13:20;88859.91;;;18.37;100.00
22649;BME280;11491;41.942;24.220;2023-08-06T05:15:46;88867.31;;;18.53;100.00
22649;BME280;11491;41.942;24.220;2023-08-06T05:18:14;88867.81;;;18.68;100.00
22649;BME280;11491;41.942;24.220;2023-08-06T05:20:42;88862.09;;;18.86;100.00
22649;BME280;11491;41.942;24.220;2023-08-06T05:23:09;88862.91;;;18.83;100.00
22649;BME280;11491;41.942;24.220;2023-08-06T05:25:35;88867.34;;;18.93;100.00
22649;BME280;11491;41.942;24.220;2023-08-06T05:28:02;88847.72;;;19.05;100.00
22649;BME280;11491;41.942;24.220;2023-08-06T05:30:29;88843.41;;;19.28;100.00
22649;BME280;11491;41.942;24.220;2023-08-06T05:32:56;88832.56;;;19.28;100.00
22649;BME280;11491;41.942;24.220;2023-08-06T05:35:24;88823.56;;;19.47;99.28
22649;BME280;11491;41.942;24.220;2023-08-06T05:37:51;88811.84;;;19.70;98.76
22649;BME280;11491;41.942;24.220;2023-08-06T05:40:18;88810.13;;;19.76;97.09
22649;BME280;11491;41.942;24.220;2023-08-06T05:42:45;88809.72;;;19.78;96.33
22649;BME280;11491;41.942;24.220;2023-08-06T05:45:11;88794.22;;;19.78;96.89
22649;BME280;11491;41.942;24.220;2023-08-06T05:47:38;88792.91;;;19.99;96.49
22649;BME280;11491;41.942;24.220;2023-08-06T05:50:06;88795.09;;;20.05;95.22
22649;BME280;11491;41.942;24.220;2023-08-06T05:52:35;88804.91;;;20.15;94.13
22649;BME280;11491;41.942;24.220;2023-08-06T05:55:03;88818.53;;;20.28;95.61
22649;BME280;11491;41.942;24.220;2023-08-06T05:57:29;88813.09;;;20.57;95.40
22649;BME280;11491;41.942;24.220;2023-08-06T05:59:56;88814.03;;;20.79;90.01
22649;BME280;11491;41.942;24.220;2023-08-06T06:02:23;88811.56;;;20.98;90.69
22649;BME280;11491;41.942;24.220;2023-08-06T06:04:50;88810.16;;;21.19;90.13
22649;BME280;11491;41.942;24.220;2023-08-06T06:07:17;88812.59;;;21.29;89.74
22649;BME280;11491;41.942;24.220;2023-08-06T06:09:45;88811.59;;;21.36;87.55
22649;BME280;11491;41.942;24.220;2023-08-06T06:12:11;88813.69;;;21.45;89.49
22649;BME280;11491;41.942;24.220;2023-08-06T06:14:38;88812.94;;;21.57;90.49
22649;BME280;11491;41.942;24.220;2023-08-06T06:17:05;88801.50;;;21.62;88.56
22649;BME280;11491;41.942;24.220;2023-08-06T06:19:32;88809.09;;;21.67;87.21
22649;BME280;11491;41.942;24.220;2023-08-06T06:21:59;88808.00;;;21.78;86.11
22649;BME280;11491;41.942;24.220;2023-08-06T06:24:26;88808.72;;;21.91;85.42
22649;BME280;11491;41.942;24.220;2023-08-06T06:26:54;88814.91;;;22.04;82.10
22649;BME280;11491;41.942;24.220;2023-08-06T06:29:21;88818.16;;;22.12;82.72
22649;BME280;11491;41.942;24.220;2023-08-06T06:31:48;88811.59;;;22.35;79.98
22649;BME280;11491;41.942;24.220;2023-08-06T06:34:14;88805.00;;;22.45;79.60
22649;BME280;11491;41.942;24.220;2023-08-06T06:36:41;88819.72;;;22.70;79.15
22649;BME280;11491;41.942;24.220;2023-08-06T06:39:08;88826.56;;;22.96;79.27
22649;BME280;11491;41.942;24.220;2023-08-06T06:41:37;88818.47;;;23.06;76.22
22649;BME280;11491;41.942;24.220;2023-08-06T06:44:05;88823.34;;;23.11;74.90
22649;BME280;11491;41.942;24.220;2023-08-06T06:46:32;88831.94;;;23.31;75.83
22649;BME280;11491;41.942;24.220;2023-08-06T06:48:59;88834.63;;;23.53;73.25
22649;BME280;11491;41.942;24.220;2023-08-06T06:51:25;88832.41;;;23.70;72.19
22649;BME280;11491;41.942;24.220;2023-08-06T06:53:52;88842.03;;;23.84;69.40
22649;BME280;11491;41.942;24.220;2023-08-06T06:56:19;88843.41;;;23.89;67.62
22649;BME280;11491;41.942;24.220;2023-08-06T06:58:46;88837.31;;;23.84;67.52
22649;BME280;11491;41.942;24.220;2023-08-06T07:01:14;88842.78;;;23.84;71.24
22649;BME280;11491;41.942;24.220;2023-08-06T07:03:41;88824.94;;;24.02;72.39
22649;BME280;11491;41.942;24.220;2023-08-06T07:06:07;88852.28;;;24.29;71.89
22649;BME280;11491;41.942;24.220;2023-08-06T07:08:34;88851.69;;;24.25;67.51
22649;BME280;11491;41.942;24.220;2023-08-06T07:11:02;88857.03;;;23.89;66.98
22649;BME280;11491;41.942;24.220;2023-08-06T07:13:29;88860.97;;;23.56;68.73
22649;BME280;11491;41.942;24.220;2023-08-06T07:15:55;88860.00;;;23.41;71.93
22649;BME280;11491;41.942;24.220;2023-08-06T07:18:24;88861.53;;;23.20;74.67
22649;BME280;11491;41.942;24.220;2023-08-06T07:20:51;88866.00;;;23.05;74.40
22649;BME280;11491;41.942;24.220;2023-08-06T07:23:19;88853.72;;;22.87;76.80
22649;BME280;11491;41.942;24.220;2023-08-06T07:25:46;88859.09;;;22.78;77.69
22649;BME280;11491;41.942;24.220;2023-08-06T07:28:13;88857.09;;;22.69;78.97
22649;BME280;11491;41.942;24.220;2023-08-06T07:30:40;88869.22;;;22.55;81.02
22649;BME280;11491;41.942;24.220;2023-08-06T07:33:07;88866.06;;;22.57;82.95
22649;BME280;11491;41.942;24.220;2023-08-06T07:35:36;88866.81;;;22.57;82.14
22649;BME280;11491;41.942;24.220;2023-08-06T07:38:03;88839.75;;;22.06;82.67
22649;BME280;11491;41.942;24.220;2023-08-06T07:40:29;88872.25;;;22.10;82.99
22649;BME280;11491;41.942;24.220;2023-08-06T07:42:56;88875.97;;;21.90;84.59
22649;BME280;11491;41.942;24.220;2023-08-06T07:45:24;88879.81;;;21.67;81.70
22649;BME280;11491;41.942;24.220;2023-08-06T07:47:52;88867.06;;;21.39;83.21
22649;BME280;11491;41.942;24.220;2023-08-06T07:50:18;88881.50;;;21.36;83.51
22649;BME280;11491;41.942;24.220;2023-08-06T07:52:47;88872.16;;;21.37;83.52
22649;BME280;11491;41.942;24.220;2023-08-06T07:55:13;88876.97;;;21.58;82.74
22649;BME280;11491;41.942;24.220;2023-08-06T07:57:41;88876.66;;;21.69;80.48
22649;BME280;11491;41.942;24.220;2023-08-06T08:00:08;88884.88;;;22.17;79.77
22649;BME280;11491;41.942;24.220;2023-08-06T08:02:35;88896.28;;;22.37;77.32
22649;BME280;11491;41.942;24.220;2023-08-06T08:05:05;88903.66;;;22.49;77.65
22649;BME280;11491;41.942;24.220;2023-08-06T08:07:32;88899.50;;;22.57;77.39
22649;BME280;11491;41.942;24.220;2023-08-06T08:10:00;88891.09;;;22.65;76.43
22649;BME280;11491;41.942;24.220;2023-08-06T08:12:28;88895.31;;;22.66;75.55
22649;BME280;11491;41.942;24.220;2023-08-06T08:14:55;88904.13;;;22.35;76.11
22649;BME280;11491;41.942;24.220;2023-08-06T08:17:21;88896.09;;;21.93;76.69
22649;BME280;11491;41.942;24.220;2023-08-06T08:19:48;88896.88;;;21.81;76.68
22649;BME280;11491;41.942;24.220;2023-08-06T08:22:15;88884.59;;;21.89;78.03
22649;BME280;11491;41.942;24.220;2023-08-06T08:24:42;88886.53;;;22.01;78.34
22649;BME280;11491;41.942;24.220;2023-08-06T08:27:10;88881.22;;;22.45;78.69
22649;BME280;11491;41.942;24.220;2023-08-06T08:29:36;88887.06;;;22.91;77.75
22649;BME280;11491;41.942;24.220;2023-08-06T08:32:03;88900.31;;;23.46;75.05
22649;BME280;11491;41.942;24.220;2023-08-06T08:34:31;88890.25;;;23.65;71.50
22649;BME280;11491;41.942;24.220;2023-08-06T08:36:58;88895.19;;;23.79;71.74
22649;BME280;11491;41.942;24.220;2023-08-06T08:39:24;88897.38;;;23.94;68.99
22649;BME280;11491;41.942;24.220;2023-08-06T08:41:52;88893.81;;;24.15;68.89
22649;BME280;11491;41.942;24.220;2023-08-06T08:44:20;88893.56;;;24.22;68.70
22649;BME280;11491;41.942;24.220;2023-08-06T08:46:47;88884.44;;;24.35;67.35
22649;BME280;11491;41.942;24.220;2023-08-06T08:49:14;88890.81;;;24.32;69.11
22649;BME280;11491;41.942;24.220;2023-08-06T08:51:43;88888.75;;;24.45;69.15
22649;BME280;11491;41.942;24.220;2023-08-06T08:54:12;88885.44;;;24.68;65.98
22649;BME280;11491;41.942;24.220;2023-08-06T08:56:39;88866.50;;;24.83;68.95
22649;BME280;11491;41.942;24.220;2023-08-06T08:59:06;88864.50;;;25.21;69.40
22649;BME280;11491;41.942;24.220;2023-08-06T09:01:34;88870.25;;;25.50;64.88
22649;BME280;11491;41.942;24.220;2023-08-06T09:04:02;88856.78;;;25.71;64.13
22649;BME280;11491;41.942;24.220;2023-08-06T09:06:30;88874.09;;;25.86;62.46
22649;BME280;11491;41.942;24.220;2023-08-06T09:09:05;88876.66;;;25.99;63.30
22649;BME280;11491;41.942;24.220;2023-08-06T09:11:36;88875.03;;;26.50;63.29
22649;BME280;11491;41.942;24.220;2023-08-06T09:14:06;88877.66;;;26.92;60.31
22649;BME280;11491;41.942;24.220;2023-08-06T09:16:35;88875.22;;;26.94;57.05
22649;BME280;11491;41.942;24.220;2023-08-06T09:19:07;88867.00;;;26.70;58.98
22649;BME280;11491;41.942;24.220;2023-08-06T09:21:36;88866.84;;;26.74;61.24
22649;BME280;11491;41.942;24.220;2023-08-06T09:24:07;88863.34;;;27.12;58.77
22649;BME280;11491;41.942;24.220;2023-08-06T09:26:34;88857.75;;;27.31;57.63
22649;BME280;11491;41.942;24.220;2023-08-06T09:29:05;88857.53;;;27.34;57.77
22649;BME280;11491;41.942;24.220;2023-08-06T09:31:32;88853.88;;;27.52;55.36
22649;BME280;11491;41.942;24.220;2023-08-06T09:34:02;88850.94;;;27.41;55.94
22649;BME280;11491;41.942;24.220;2023-08-06T09:36:29;88853.19;;;27.27;52.97
22649;BME280;11491;41.942;24.220;2023-08-06T09:38:56;88834.16;;;26.85;51.63
22649;BME280;11491;41.942;24.220;2023-08-06T09:41:26;88745.66;;;25.73;53.15
22649;BME280;11491;41.942;24.220;2023-08-06T09:43:53;88842.16;;;26.50;52.55
22649;BME280;11491;41.942;24.220;2023-08-06T09:46:20;88839.72;;;26.52;54.49
22649;BME280;11491;41.942;24.220;2023-08-06T09:48:47;88837.00;;;26.18;58.66
22649;BME280;11491;41.942;24.220;2023-08-06T09:51:16;88835.88;;;26.34;58.14
22649;BME280;11491;41.942;24.220;2023-08-06T09:53:43;88838.34;;;26.56;59.74
22649;BME280;11491;41.942;24.220;2023-08-06T09:56:12;88831.19;;;26.50;60.08
22649;BME280;11491;41.942;24.220;2023-08-06T09:58:39;88837.81;;;26.67;60.02
22649;BME280;11491;41.942;24.220;2023-08-06T10:01:06;88836.16;;;26.84;57.77
22649;BME280;11491;41.942;24.220;2023-08-06T10:03:33;88847.78;;;26.79;56.81
22649;BME280;11491;41.942;24.220;2023-08-06T10:06:01;88846.13;;;26.73;58.14
22649;BME280;11491;41.942;24.220;2023-08-06T10:08:32;88844.59;;;26.48;57.99
22649;BME280;11491;41.942;24.220;2023-08-06T10:11:01;88847.41;;;26.38;56.71
22649;BME280;11491;41.942;24.220;2023-08-06T10:13:30;88844.00;;;26.19;60.08
22649;BME280;11491;41.942;24.220;2023-08-06T10:15:57;88838.66;;;26.25;58.40
22649;BME280;11491;41.942;24.220;2023-08-06T10:18:27;88841.09;;;26.23;57.66
22649;BME280;11491;41.942;24.220;2023-08-06T10:20:54;88840.44;;;26.28;59.07
22649;BME280;11491;41.942;24.220;2023-08-06T10:23:35;88844.38;;;26.36;57.77
22649;BME280;11491;41.942;24.220;2023-08-06T10:26:03;88843.25;;;26.43;57.08
22649;BME280;11491;41.942;24.220;2023-08-06T10:28:37;88837.50;;;26.65;59.34
22649;BME280;11491;41.942;24.220;2023-08-06T10:31:03;88840.25;;;27.04;59.86
22649;BME280;11491;41.942;24.220;2023-08-06T10:33:42;88837.88;;;26.58;58.14
22649;BME280;11491;41.942;24.220;2023-08-06T10:36:10;88844.91;;;26.50;58.53
22649;BME280;11491;41.942;24.220;2023-08-06T10:38:45;88849.00;;;26.54;56.04
22649;BME280;11491;41.942;24.220;2023-08-06T10:41:17;88849.53;;;26.10;56.31
22649;BME280;11491;41.942;24.220;2023-08-06T10:43:47;88823.94;;;25.80;56.08
22649;BME280;11491;41.942;24.220;2023-08-06T10:46:22;88833.13;;;25.58;56.42
22649;BME280;11491;41.942;24.220;2023-08-06T10:48:49;88864.69;;;25.69;56.57
22649;BME280;11491;41.942;24.220;2023-08-06T10:51:17;88857.06;;;25.82;57.96
22649;BME280;11491;41.942;24.220;2023-08-06T10:53:46;88858.88;;;26.28;57.17
22649;BME280;11491;41.942;24.220;2023-08-06T10:56:13;88864.41;;;26.76;54.99
22649;BME280;11491;41.942;24.220;2023-08-06T10:58:40;88838.63;;;27.21;54.01
22649;BME280;11491;41.942;24.220;2023-08-06T11:01:07;88869.69;;;28.02;48.25
22649;BME280;11491;41.942;24.220;2023-08-06T11:03:34;88873.97;;;27.88;48.97
22649;BME280;11491;41.942;24.220;2023-08-06T11:06:01;88876.72;;;27.88;48.68
22649;BME280;11491;41.942;24.220;2023-08-06T11:08:33;88866.75;;;27.61;49.42
22649;BME280;11491;41.942;24.220;2023-08-06T11:11:09;88864.00;;;27.46;52.73
22649;BME280;11491;41.942;24.220;2023-08-06T11:13:38;88871.06;;;27.38;50.18
22649;BME280;11491;41.942;24.220;2023-08-06T11:16:05;88888.31;;;27.14;51.50
22649;BME280;11491;41.942;24.220;2023-08-06T11:18:32;88884.00;;;26.83;50.10
22649;BME280;11491;41.942;24.220;2023-08-06T11:20:59;88885.09;;;26.53;52.77
22649;BME280;11491;41.942;24.220;2023-08-06T11:23:26;88896.09;;;26.01;54.43
22649;BME280;11491;41.942;24.220;2023-08-06T11:25:54;88896.78;;;25.87;60.44
22649;BME280;11491;41.942;24.220;2023-08-06T11:28:22;88892.56;;;26.10;56.63
22649;BME280;11491;41.942;24.220;2023-08-06T11:30:49;88892.56;;;26.10;55.17
22649;BME280;11491;41.942;24.220;2023-08-06T11:33:20;88889.03;;;25.85;55.54
22649;BME280;11491;41.942;24.220;2023-08-06T11:35:47;88892.13;;;25.50;58.39
22649;BME280;11491;41.942;24.220;2023-08-06T11:38:14;88895.94;;;26.05;57.55
22649;BME280;11491;41.942;24.220;2023-08-06T11:40:43;88897.22;;;26.61;56.22
22649;BME280;11491;41.942;24.220;2023-08-06T11:43:10;88890.56;;;27.01;52.99
22649;BME280;11491;41.942;24.220;2023-08-06T11:45:38;88895.91;;;27.19;53.27
22649;BME280;11491;41.942;24.220;2023-08-06T11:48:05;88895.06;;;27.82;52.81
22649;BME280;11491;41.942;24.220;2023-08-06T11:50:36;88897.59;;;28.30;47.14
22649;BME280;11491;41.942;24.220;2023-08-06T11:53:04;88896.16;;;28.20;47.75
22649;BME280;11491;41.942;24.220;2023-08-06T11:55:31;88902.44;;;28.20;44.47
22649;BME280;11491;41.942;24.220;2023-08-06T11:57:58;88894.88;;;28.00;43.96
22649;BME280;11491;41.942;24.220;2023-08-06T12:00:25;88901.09;;;27.71;45.03
22649;BME280;11491;41.942;24.220;2023-08-06T12:02:54;88901.63;;;27.31;47.79
22649;BME280;11491;41.942;24.220;2023-08-06T12:05:21;88908.47;;;27.11;51.39
22649;BME280;11491;41.942;24.220;2023-08-06T12:07:50;88910.75;;;26.89;50.79
22649;BME280;11491;41.942;24.220;2023-08-06T12:10:17;88895.69;;;26.27;50.85
22649;BME280;11491;41.942;24.220;2023-08-06T12:12:46;88905.03;;;26.11;52.36
22649;BME280;11491;41.942;24.220;2023-08-06T12:15:14;88913.94;;;25.78;51.84
22649;BME280;11491;41.942;24.220;2023-08-06T12:17:41;88910.97;;;25.48;53.65
22649;BME280;11491;41.942;24.220;2023-08-06T12:20:09;88903.69;;;25.45;52.29
22649;BME280;11491;41.942;24.220;2023-08-06T12:22:37;88907.44;;;25.66;53.62
22649;BME280;11491;41.942;24.220;2023-08-06T12:25:06;88911.22;;;25.78;52.93
22649;BME280;11491;41.942;24.220;2023-08-06T12:27:34;88914.09;;;25.93;52.80
22649;BME280;11491;41.942;24.220;2023-08-06T12:30:01;88916.97;;;25.80;53.03
22649;BME280;11491;41.942;24.220;2023-08-06T12:32:29;88915.81;;;25.63;51.74
22649;BME280;11491;41.942;24.220;2023-08-06T12:34:55;88928.78;;;25.34;53.79
22649;BME280;11491;41.942;24.220;2023-08-06T12:37:24;88922.84;;;25.27;52.52
22649;BME280;11491;41.942;24.220;2023-08-06T12:39:50;88926.78;;;25.07;53.59
22649;BME280;11491;41.942;24.220;2023-08-06T12:42:17;88928.56;;;24.74;52.67
22649;BME280;11491;41.942;24.220;2023-08-06T12:44:44;88927.03;;;24.63;54.30
22649;BME280;11491;41.942;24.220;2023-08-06T12:47:11;88927.19;;;24.60;53.36
22649;BME280;11491;41.942;24.220;2023-08-06T12:49:38;88927.66;;;24.67;52.27
22649;BME280;11491;41.942;24.220;2023-08-06T12:52:05;88923.41;;;24.76;52.25
22649;BME280;11491;41.942;24.220;2023-08-06T12:54:34;88928.72;;;24.79;52.51
22649;BME280;11491;41.942;24.220;2023-08-06T12:57:02;88937.69;;;24.80;52.10